YPAD

Adelaide International Airport

Airport
ICAO code
YPAD
IATA Code
ADL
Summary
ICAO Region
APAC
ICAO Territory
Location

, South Australia

Serving
Adelaide
Elevation
20 ft
Coordinates
34° 56' 42" S , 138° 31' 50" E
Metar
Observation
YPAD 170800Z 02016KT 9999 -RA NSC 16/07 Q1010
Station
Adelaide Airport
Date/Time
2022-08-17 08:00:00
Wind direction
20°
Wind speed
16 kts
Lowest cloud amount
nil significant cloud
Temperature
16°C
Dew point
7°C
Humidity
55%
QNH
1010 hPa
Weather condition
light rain

SKYbrary Partners:

Safety knowledge contributed by: